createdAt,value
2023-02-06T00:00:33.238Z,95.80
2023-02-06T00:02:38.415Z,95.80
2023-02-06T00:04:43.748Z,95.90
2023-02-06T00:06:49.020Z,95.90
2023-02-06T00:08:54.824Z,96.00
2023-02-06T00:11:07.530Z,96.00
2023-02-06T00:13:12.423Z,96.00
2023-02-06T00:15:17.374Z,96.10
2023-02-06T00:17:22.250Z,96.00
2023-02-06T00:19:27.171Z,96.00
2023-02-06T00:21:32.867Z,96.00
2023-02-06T00:23:37.777Z,96.00
2023-02-06T00:25:42.692Z,96.00
2023-02-06T00:27:50.189Z,96.10
2023-02-06T00:29:56.166Z,96.10
2023-02-06T00:32:01.252Z,96.20
2023-02-06T00:34:06.527Z,96.20
2023-02-06T00:36:12.501Z,96.30
2023-02-06T00:38:17.489Z,96.30
2023-02-06T00:40:23.187Z,96.20
2023-02-06T00:42:28.680Z,96.20
2023-02-06T00:44:36.212Z,96.30
2023-02-06T00:46:41.479Z,96.30
2023-02-06T00:48:47.105Z,96.20
2023-02-06T00:50:52.119Z,96.30
2023-02-06T00:52:57.822Z,96.30
2023-02-06T00:55:02.736Z,96.30
2023-02-06T00:57:07.752Z,96.30
2023-02-06T00:59:13.809Z,96.30
2023-02-06T01:01:21.332Z,96.30
2023-02-06T01:03:26.450Z,96.10
2023-02-06T01:05:32.436Z,96.20
2023-02-06T01:07:40.139Z,96.10
2023-02-06T01:09:45.218Z,96.20
2023-02-06T01:11:50.903Z,96.30
2023-02-06T01:13:56.049Z,96.50
2023-02-06T01:16:01.779Z,96.50
2023-02-06T01:18:10.972Z,96.40
2023-02-06T01:20:18.472Z,96.30
2023-02-06T01:22:23.418Z,96.40
2023-02-06T01:24:28.332Z,96.30
2023-02-06T01:26:33.358Z,96.30
2023-02-06T01:28:39.576Z,96.30
2023-02-06T01:30:44.821Z,96.40
2023-02-06T01:32:50.081Z,96.30
2023-02-06T01:34:57.599Z,96.20
2023-02-06T01:37:02.976Z,96.30
2023-02-06T01:39:08.816Z,96.20
2023-02-06T01:41:15.869Z,96.10
2023-02-06T01:43:21.593Z,96.00
2023-02-06T01:45:46.575Z,96.10
2023-02-06T01:47:52.676Z,95.90
2023-02-06T01:50:00.644Z,95.90
2023-02-06T01:52:14.126Z,95.80
2023-02-06T01:54:20.467Z,95.90
2023-02-06T01:56:27.191Z,96.00
2023-02-06T01:58:39.164Z,96.10
2023-02-06T02:00:44.281Z,96.10
2023-02-06T02:02:52.330Z,96.10
2023-02-06T02:05:00.823Z,96.20
2023-02-06T02:07:15.121Z,96.10
2023-02-06T02:09:21.262Z,96.00
2023-02-06T02:11:32.923Z,96.00
2023-02-06T02:13:39.213Z,96.10
2023-02-06T02:16:00.204Z,95.90
2023-02-06T02:18:14.051Z,96.00
2023-02-06T02:21:23.885Z,96.00
2023-02-06T02:23:40.473Z,96.10
2023-02-06T02:26:25.354Z,96.00
2023-02-06T02:29:01.407Z,96.00
2023-02-06T02:31:50.277Z,96.00
2023-02-06T02:34:33.462Z,95.90
2023-02-06T02:36:49.177Z,95.90
2023-02-06T02:39:06.837Z,95.90
2023-02-06T02:41:18.856Z,95.90
2023-02-06T02:43:34.517Z,95.80
2023-02-06T02:45:49.312Z,95.90
2023-02-06T02:48:00.995Z,95.90
2023-02-06T02:50:07.198Z,95.90
2023-02-06T02:52:16.160Z,95.70
2023-02-06T02:54:22.337Z,95.70
2023-02-06T02:56:33.495Z,95.80
2023-02-06T02:58:40.002Z,95.80
2023-02-06T03:00:51.721Z,95.90
2023-02-06T03:03:00.351Z,95.90
2023-02-06T03:05:10.090Z,96.00
2023-02-06T03:07:32.577Z,96.00
2023-02-06T03:09:50.780Z,96.10
2023-02-06T03:12:07.727Z,96.10
2023-02-06T03:14:21.044Z,96.30
2023-02-06T03:16:31.605Z,96.30
2023-02-06T03:18:44.470Z,96.30
2023-02-06T03:20:51.437Z,96.30
2023-02-06T03:23:02.074Z,96.30
2023-02-06T03:25:13.507Z,96.40
2023-02-06T03:27:21.649Z,96.30
2023-02-06T03:29:29.341Z,96.40
2023-02-06T03:31:40.942Z,96.30
2023-02-06T03:33:57.257Z,96.20
2023-02-06T03:36:04.255Z,96.30
2023-02-06T03:38:12.101Z,96.40
2023-02-06T03:40:18.220Z,96.40
2023-02-06T03:42:25.736Z,96.40
2023-02-06T03:44:36.982Z,96.40
2023-02-06T03:46:46.690Z,96.40
2023-02-06T03:48:57.324Z,96.40
2023-02-06T03:51:07.656Z,96.40
2023-02-06T03:53:16.497Z,96.40
2023-02-06T03:55:25.275Z,96.40
2023-02-06T03:57:33.129Z,96.40
2023-02-06T03:59:38.047Z,96.30
2023-02-06T04:01:45.501Z,96.40
2023-02-06T04:03:51.093Z,96.40
2023-02-06T04:05:56.008Z,96.40
2023-02-06T04:08:01.987Z,96.30
2023-02-06T04:10:10.077Z,96.30
2023-02-06T04:12:15.401Z,96.20
2023-02-06T04:14:21.145Z,96.30
2023-02-06T04:16:26.078Z,96.20
2023-02-06T04:18:31.910Z,96.20
2023-02-06T04:20:40.946Z,96.40
2023-02-06T04:22:46.349Z,96.30
2023-02-06T04:24:51.857Z,96.40
2023-02-06T04:26:59.361Z,96.30
2023-02-06T04:29:05.087Z,96.30
2023-02-06T04:31:10.009Z,96.40
2023-02-06T04:33:15.383Z,96.40
2023-02-06T04:35:21.298Z,96.40
2023-02-06T04:37:26.222Z,96.40
2023-02-06T04:39:32.454Z,96.30
2023-02-06T04:41:37.851Z,96.30
2023-02-06T04:43:45.708Z,96.30
2023-02-06T04:45:50.649Z,96.20
2023-02-06T04:47:57.073Z,96.30
2023-02-06T04:50:03.672Z,96.30
2023-02-06T04:52:08.705Z,96.30
2023-02-06T04:54:17.356Z,96.30
2023-02-06T04:56:23.128Z,96.40
2023-02-06T04:58:28.035Z,96.40
2023-02-06T05:00:37.940Z,96.40
2023-02-06T05:02:44.325Z,96.30
2023-02-06T05:04:49.301Z,96.40
2023-02-06T05:06:54.607Z,96.30
2023-02-06T05:09:01.727Z,96.40
2023-02-06T05:11:06.775Z,96.40
2023-02-06T05:13:11.983Z,96.40
2023-02-06T05:15:16.956Z,96.30
2023-02-06T05:17:24.682Z,96.30
2023-02-06T05:19:30.413Z,96.20
2023-02-06T05:21:35.408Z,96.20
2023-02-06T05:23:41.041Z,96.20
2023-02-06T05:25:46.109Z,96.20
2023-02-06T05:27:51.454Z,96.30
2023-02-06T05:29:56.408Z,96.30
2023-02-06T05:32:02.030Z,96.30
2023-02-06T05:34:09.526Z,96.30
2023-02-06T05:36:15.456Z,96.20
2023-02-06T05:38:20.970Z,96.10
2023-02-06T05:40:26.337Z,96.10
2023-02-06T05:42:31.732Z,96.20
2023-02-06T05:44:36.659Z,96.30
2023-02-06T05:46:42.080Z,96.30
2023-02-06T05:48:47.304Z,96.30
2023-02-06T05:50:54.825Z,96.30
2023-02-06T05:52:59.759Z,96.40
2023-02-06T05:55:05.379Z,96.40
2023-02-06T05:57:10.448Z,96.50
2023-02-06T05:59:15.777Z,96.40
2023-02-06T06:01:20.998Z,96.50
2023-02-06T06:03:26.025Z,96.40
2023-02-06T06:05:31.447Z,96.50
2023-02-06T06:07:39.037Z,96.40
2023-02-06T06:09:44.933Z,96.40
2023-02-06T06:11:51.818Z,96.50
2023-02-06T06:13:57.241Z,96.50
2023-02-06T06:16:02.704Z,96.40
2023-02-06T06:18:08.356Z,96.40
2023-02-06T06:20:15.029Z,96.40
2023-02-06T06:22:20.734Z,96.30
2023-02-06T06:24:29.035Z,96.30
2023-02-06T06:26:34.779Z,96.40
2023-02-06T06:28:41.322Z,96.30
2023-02-06T06:30:47.220Z,96.30
2023-02-06T06:32:52.624Z,96.30
2023-02-06T06:34:58.878Z,96.40
2023-02-06T06:37:04.188Z,96.30
2023-02-06T06:39:09.202Z,96.30
2023-02-06T06:41:16.918Z,96.30
2023-02-06T06:43:23.390Z,96.30
2023-02-06T06:45:29.221Z,96.30
2023-02-06T06:47:37.463Z,96.30
2023-02-06T06:49:43.274Z,96.40
2023-02-06T06:51:50.403Z,96.40
2023-02-06T06:53:56.820Z,96.40
2023-02-06T06:56:07.141Z,96.30
2023-02-06T06:58:15.189Z,96.30
2023-02-06T07:00:21.699Z,96.40
2023-02-06T07:02:28.768Z,96.40
2023-02-06T07:04:34.731Z,96.30
2023-02-06T07:06:40.383Z,96.40
2023-02-06T07:08:46.375Z,96.40
2023-02-06T07:10:52.440Z,96.40
2023-02-06T07:12:58.300Z,96.50
2023-02-06T07:15:06.923Z,96.60
2023-02-06T07:17:13.321Z,96.60
2023-02-06T07:19:19.360Z,96.60
2023-02-06T07:21:25.327Z,96.50
2023-02-06T07:23:31.280Z,96.60
2023-02-06T07:25:37.636Z,96.60
2023-02-06T07:27:43.808Z,96.70
2023-02-06T07:29:50.635Z,96.50
2023-02-06T07:31:58.800Z,96.50
2023-02-06T07:34:04.617Z,96.50
2023-02-06T07:36:14.562Z,96.40
2023-02-06T07:38:20.881Z,96.30
2023-02-06T07:40:33.748Z,96.20
2023-02-06T07:42:48.840Z,96.10
2023-02-06T07:45:01.618Z,96.10
2023-02-06T07:47:11.524Z,96.00
2023-02-06T07:49:17.733Z,95.80
2023-02-06T07:51:23.179Z,95.80
2023-02-06T07:53:28.836Z,95.70
2023-02-06T07:55:35.036Z,95.80
2023-02-06T07:57:41.175Z,95.70
2023-02-06T07:59:47.240Z,95.60
2023-02-06T08:01:52.825Z,95.30
2023-02-06T08:04:01.903Z,95.00
2023-02-06T08:06:13.427Z,94.90
2023-02-06T08:08:18.748Z,95.00
2023-02-06T08:10:25.215Z,95.10
2023-02-06T08:12:33.358Z,95.00
2023-02-06T08:14:39.245Z,95.10
2023-02-06T08:16:45.237Z,95.20
2023-02-06T08:18:52.152Z,95.20
2023-02-06T08:21:05.481Z,95.20
2023-02-06T08:23:10.960Z,95.20
2023-02-06T08:25:16.885Z,95.30
2023-02-06T08:27:22.862Z,95.40
2023-02-06T08:29:30.171Z,95.20
2023-02-06T08:31:39.621Z,95.00
2023-02-06T08:33:45.707Z,95.00
2023-02-06T08:35:51.066Z,94.90
2023-02-06T08:38:00.898Z,95.00
2023-02-06T08:40:06.254Z,95.00
2023-02-06T08:42:11.227Z,94.90
2023-02-06T08:44:20.074Z,94.80
2023-02-06T08:46:28.277Z,94.80
2023-02-06T08:48:33.395Z,94.70
2023-02-06T08:50:38.822Z,94.70
2023-02-06T08:52:43.808Z,94.90
2023-02-06T08:54:53.131Z,94.70
2023-02-06T08:57:01.011Z,94.50
2023-02-06T08:59:09.076Z,94.30
2023-02-06T09:01:16.727Z,94.10
2023-02-06T09:03:23.016Z,94.50
2023-02-06T09:05:28.482Z,94.10
2023-02-06T09:07:34.272Z,94.00
2023-02-06T09:09:39.849Z,94.20
2023-02-06T09:11:47.753Z,93.30
2023-02-06T09:13:54.162Z,93.50
2023-02-06T09:15:59.472Z,93.60
2023-02-06T09:18:04.471Z,93.30
2023-02-06T09:20:11.728Z,93.40
2023-02-06T09:22:16.672Z,93.10
2023-02-06T09:24:21.634Z,93.00
2023-02-06T09:26:29.291Z,92.50
2023-02-06T09:28:37.219Z,92.80
2023-02-06T09:30:42.264Z,92.40
2023-02-06T09:32:47.660Z,92.60
2023-02-06T09:34:52.603Z,91.50
2023-02-06T09:36:59.303Z,91.70
2023-02-06T09:39:07.264Z,91.70
2023-02-06T09:41:20.996Z,92.20
2023-02-06T09:43:27.244Z,92.60
2023-02-06T09:45:36.164Z,92.70
2023-02-06T09:47:47.530Z,91.50
2023-02-06T09:49:56.511Z,90.80
2023-02-06T09:52:19.990Z,92.10
2023-02-06T09:54:28.420Z,90.80
2023-02-06T09:56:42.379Z,91.30
2023-02-06T09:58:55.273Z,92.00
2023-02-06T10:01:13.066Z,92.40
2023-02-06T10:03:47.090Z,90.90
2023-02-06T10:06:04.484Z,90.40
2023-02-06T10:08:28.180Z,91.10
2023-02-06T10:10:40.018Z,90.90
2023-02-06T10:12:49.763Z,91.60
2023-02-06T10:15:01.361Z,91.10
2023-02-06T10:17:20.809Z,90.90
2023-02-06T10:19:44.448Z,90.50
2023-02-06T10:21:57.500Z,89.90
2023-02-06T10:24:11.846Z,90.00
2023-02-06T10:26:19.771Z,88.80
2023-02-06T10:28:27.963Z,88.80
2023-02-06T10:30:52.317Z,87.00
2023-02-06T10:33:09.713Z,88.00
2023-02-06T10:35:34.833Z,85.00
2023-02-06T10:38:20.741Z,87.50
2023-02-06T10:40:38.084Z,87.10
2023-02-06T10:42:56.561Z,85.90
2023-02-06T10:45:18.948Z,84.50
2023-02-06T10:47:39.284Z,86.10
2023-02-06T10:49:55.385Z,83.30
2023-02-06T10:52:04.483Z,86.00
2023-02-06T10:54:19.469Z,82.60
2023-02-06T10:56:30.097Z,82.20
2023-02-06T10:58:43.290Z,86.10
2023-02-06T11:00:49.489Z,87.80
2023-02-06T11:03:07.211Z,86.50
2023-02-06T11:05:20.321Z,86.30
2023-02-06T11:07:31.380Z,85.30
2023-02-06T11:09:37.108Z,85.90
2023-02-06T11:11:48.609Z,83.70
2023-02-06T11:13:57.794Z,85.40
2023-02-06T11:16:08.330Z,85.60
2023-02-06T11:18:23.446Z,86.20
2023-02-06T11:20:35.264Z,87.00
2023-02-06T11:22:52.028Z,85.40
2023-02-06T11:25:04.644Z,85.10
2023-02-06T11:27:20.582Z,84.50
2023-02-06T11:29:29.924Z,81.60
2023-02-06T11:31:45.190Z,80.50
2023-02-06T11:33:55.920Z,79.50
2023-02-06T11:36:05.236Z,82.60
2023-02-06T11:38:19.947Z,82.20
2023-02-06T11:40:29.758Z,82.80
2023-02-06T11:42:36.321Z,82.10
2023-02-06T11:44:45.211Z,81.20
2023-02-06T11:46:50.148Z,83.50
2023-02-06T11:49:09.659Z,83.10
2023-02-06T11:51:19.325Z,82.10
2023-02-06T11:53:24.389Z,82.60
2023-02-06T11:55:32.137Z,85.40
2023-02-06T11:57:37.503Z,82.20
2023-02-06T11:59:55.192Z,81.60
2023-02-06T12:02:01.581Z,81.40
2023-02-06T12:04:07.648Z,80.40
2023-02-06T12:06:20.147Z,81.00
2023-02-06T12:08:27.392Z,79.10
2023-02-06T12:10:38.992Z,81.00
2023-02-06T12:12:49.487Z,82.10
2023-02-06T12:15:04.883Z,80.50
2023-02-06T12:17:28.805Z,82.40
2023-02-06T12:19:44.857Z,84.10
2023-02-06T12:21:56.801Z,83.60
2023-02-06T12:24:05.672Z,82.10
2023-02-06T12:26:17.651Z,84.00
2023-02-06T12:28:29.696Z,84.30
2023-02-06T12:32:57.496Z,83.70
2023-02-06T12:35:18.427Z,82.60
2023-02-06T12:37:35.941Z,80.40
2023-02-06T12:39:41.039Z,80.20
2023-02-06T12:42:01.189Z,79.00
2023-02-06T12:44:21.038Z,78.50
2023-02-06T12:46:30.873Z,78.40
2023-02-06T12:48:43.129Z,79.70
2023-02-06T12:50:54.105Z,81.60
2023-02-06T12:53:07.233Z,78.30
2023-02-06T12:55:24.683Z,76.40
2023-02-06T12:57:33.208Z,77.60
2023-02-06T13:00:12.824Z,76.00
2023-02-06T13:02:28.806Z,75.90
2023-02-06T13:04:38.725Z,76.00
2023-02-06T13:06:56.112Z,73.40
2023-02-06T13:09:08.068Z,74.80
2023-02-06T13:11:32.596Z,74.30
2023-02-06T13:13:42.227Z,74.20
2023-02-06T13:15:57.573Z,73.30
2023-02-06T13:18:02.530Z,74.20
2023-02-06T13:20:12.640Z,76.20
2023-02-06T13:22:42.109Z,76.40
2023-02-06T13:24:51.742Z,76.60
2023-02-06T13:27:17.993Z,77.30
2023-02-06T13:29:28.174Z,78.70
2023-02-06T13:31:36.427Z,76.00
2023-02-06T13:33:44.489Z,78.60
2023-02-06T13:36:00.009Z,72.20
2023-02-06T13:38:31.164Z,73.00
2023-02-06T13:40:39.656Z,72.70
2023-02-06T13:42:54.027Z,72.40
2023-02-06T13:45:01.154Z,70.60
2023-02-06T13:47:39.195Z,71.60
2023-02-06T13:50:34.056Z,69.70
2023-02-06T13:52:45.666Z,67.10
2023-02-06T13:55:10.185Z,67.20
2023-02-06T13:57:34.167Z,62.90
2023-02-06T13:59:44.095Z,67.20
2023-02-06T14:01:49.804Z,66.90
2023-02-06T14:03:57.608Z,68.10
2023-02-06T14:06:10.615Z,64.00
2023-02-06T14:08:25.796Z,61.40
2023-02-06T14:11:11.102Z,64.00
2023-02-06T14:13:40.091Z,65.00
2023-02-06T14:15:58.866Z,68.00
2023-02-06T14:18:27.130Z,63.60
2023-02-06T14:20:45.296Z,65.00
2023-02-06T14:22:58.184Z,67.20
2023-02-06T14:25:26.875Z,66.20
2023-02-06T14:27:46.880Z,68.30
2023-02-06T14:30:05.165Z,66.90
2023-02-06T14:32:30.143Z,68.90
2023-02-06T14:34:52.714Z,69.50
2023-02-06T14:37:27.012Z,69.60
2023-02-06T14:39:53.098Z,70.10
2023-02-06T14:41:58.656Z,69.50
2023-02-06T14:44:04.025Z,71.70
2023-02-06T14:46:17.035Z,72.60
2023-02-06T14:48:26.986Z,73.50
2023-02-06T14:50:35.367Z,73.20
2023-02-06T14:52:40.944Z,74.30
2023-02-06T14:54:46.020Z,75.30
2023-02-06T14:56:59.752Z,76.10
2023-02-06T14:59:18.489Z,75.50
2023-02-06T15:01:32.632Z,75.30
2023-02-06T15:03:38.222Z,75.30
2023-02-06T15:05:43.583Z,76.00
2023-02-06T15:07:49.601Z,76.40
2023-02-06T15:10:10.645Z,75.80
2023-02-06T15:12:23.910Z,76.90
2023-02-06T15:14:32.950Z,76.50
2023-02-06T15:16:53.447Z,77.10
2023-02-06T15:19:13.872Z,77.80
2023-02-06T15:21:23.180Z,76.50
2023-02-06T15:23:45.576Z,76.70
2023-02-06T15:26:08.515Z,76.00
2023-02-06T15:28:21.836Z,78.10
2023-02-06T15:30:29.556Z,78.40
2023-02-06T15:32:41.001Z,76.50
2023-02-06T15:34:48.680Z,77.70
2023-02-06T15:36:55.160Z,77.10
2023-02-06T15:39:04.910Z,77.70
2023-02-06T15:41:14.508Z,76.30
2023-02-06T15:43:22.562Z,78.10
2023-02-06T15:45:31.588Z,77.20
2023-02-06T15:47:42.408Z,77.40
2023-02-06T15:49:49.917Z,78.10
2023-02-06T15:51:58.458Z,77.90
2023-02-06T15:54:20.495Z,78.50
2023-02-06T15:56:31.190Z,78.20
2023-02-06T15:58:37.917Z,78.50
2023-02-06T16:00:44.188Z,79.00
2023-02-06T16:02:52.746Z,79.40
2023-02-06T16:04:58.821Z,79.30
2023-02-06T16:07:14.969Z,79.70
2023-02-06T16:09:24.407Z,80.20
2023-02-06T16:11:48.172Z,80.50
2023-02-06T16:13:53.516Z,81.10
2023-02-06T16:16:24.334Z,81.40
2023-02-06T16:18:35.771Z,81.40
2023-02-06T16:20:44.056Z,82.20
2023-02-06T16:22:49.197Z,81.80
2023-02-06T16:24:58.531Z,82.10
2023-02-06T16:27:19.333Z,82.30
2023-02-06T16:29:29.656Z,82.50
2023-02-06T16:31:40.022Z,82.60
2023-02-06T16:33:50.758Z,81.80
2023-02-06T16:35:55.724Z,82.30
2023-02-06T16:38:00.895Z,83.00
2023-02-06T16:40:06.095Z,83.00
2023-02-06T16:42:17.097Z,82.90
2023-02-06T16:44:33.190Z,82.80
2023-02-06T16:46:46.448Z,83.30
2023-02-06T16:48:55.318Z,84.30
2023-02-06T16:51:01.820Z,84.40
2023-02-06T16:53:08.200Z,84.40
2023-02-06T16:55:23.204Z,84.60
2023-02-06T16:57:33.201Z,84.40
2023-02-06T16:59:38.898Z,84.40
2023-02-06T17:01:44.080Z,84.80
2023-02-06T17:03:49.058Z,84.70
2023-02-06T17:08:01.864Z,84.30
2023-02-06T17:10:08.753Z,84.40
2023-02-06T17:12:19.558Z,85.10
2023-02-06T17:14:24.481Z,85.30
2023-02-06T17:16:32.214Z,85.20
2023-02-06T17:18:37.259Z,85.50
2023-02-06T17:22:51.966Z,85.40
2023-02-06T17:24:56.935Z,85.40
2023-02-06T17:27:02.678Z,85.80
2023-02-06T17:29:07.619Z,85.30
2023-02-06T17:31:12.875Z,86.00
2023-02-06T17:35:24.947Z,86.20
2023-02-06T17:37:29.907Z,86.50
2023-02-06T17:39:37.720Z,86.80
2023-02-06T17:41:43.483Z,86.90
2023-02-06T17:43:48.430Z,86.70
2023-02-06T17:45:53.448Z,86.50
2023-02-06T17:47:59.177Z,86.50
2023-02-06T17:50:04.388Z,86.70
2023-02-06T17:52:09.920Z,86.60
2023-02-06T17:54:15.606Z,86.80
2023-02-06T17:56:23.243Z,86.60
2023-02-06T17:58:28.910Z,86.40
2023-02-06T18:00:35.018Z,86.50
2023-02-06T18:02:40.119Z,86.30
2023-02-06T18:04:48.989Z,86.20
2023-02-06T18:06:54.416Z,85.90
2023-02-06T18:09:02.300Z,85.70
2023-02-06T18:11:11.994Z,85.10
2023-02-06T18:13:20.520Z,85.30
2023-02-06T18:15:26.251Z,85.20
2023-02-06T18:17:31.203Z,85.00
2023-02-06T18:19:42.247Z,84.90
2023-02-06T18:21:47.611Z,84.90
2023-02-06T18:23:52.914Z,85.10
2023-02-06T18:25:57.843Z,84.90
2023-02-06T18:28:03.235Z,85.00
2023-02-06T18:30:13.285Z,84.10
2023-02-06T18:32:18.788Z,84.30
2023-02-06T18:34:23.845Z,84.40
2023-02-06T18:38:37.094Z,85.00
2023-02-06T18:40:45.634Z,84.50
2023-02-06T18:42:50.876Z,85.10
2023-02-06T18:44:56.164Z,84.90
2023-02-06T18:47:04.143Z,84.90
2023-02-06T18:49:09.540Z,84.30
2023-02-06T18:51:14.488Z,84.90
2023-02-06T18:53:20.238Z,84.70
2023-02-06T18:55:26.110Z,84.40
2023-02-06T18:57:31.240Z,85.00
2023-02-06T18:59:36.417Z,84.20
2023-02-06T19:01:43.787Z,84.50
2023-02-06T19:03:52.502Z,83.60
2023-02-06T19:05:57.716Z,84.90
2023-02-06T19:08:03.282Z,84.00
2023-02-06T19:10:13.031Z,85.00
2023-02-06T19:12:18.495Z,84.60
2023-02-06T19:14:25.763Z,84.30
2023-02-06T19:16:32.533Z,84.70
2023-02-06T19:18:41.876Z,84.10
2023-02-06T19:20:49.628Z,83.60
2023-02-06T19:22:55.201Z,84.40
2023-02-06T19:25:00.162Z,84.60
2023-02-06T19:27:05.676Z,84.40
2023-02-06T19:29:11.827Z,85.00
2023-02-06T19:31:23.774Z,84.10
2023-02-06T19:33:28.897Z,85.50
2023-02-06T19:35:34.086Z,85.00
2023-02-06T19:37:41.951Z,85.20
2023-02-06T19:39:46.892Z,85.10
2023-02-06T19:41:51.901Z,85.30
2023-02-06T19:43:58.592Z,85.00
2023-02-06T19:46:07.015Z,85.40
2023-02-06T19:48:14.565Z,84.90
2023-02-06T19:50:20.142Z,84.70
2023-02-06T19:52:25.220Z,85.00
2023-02-06T19:54:33.216Z,85.00
2023-02-06T19:56:41.198Z,85.00
2023-02-06T19:58:46.319Z,85.10
2023-02-06T20:00:54.636Z,85.30
2023-02-06T20:02:59.658Z,85.50
2023-02-06T20:05:04.727Z,84.60
2023-02-06T20:07:11.051Z,84.70
2023-02-06T20:09:18.407Z,83.60
2023-02-06T20:11:27.018Z,83.40
2023-02-06T20:13:31.938Z,84.10
2023-02-06T20:15:40.582Z,83.60
2023-02-06T20:17:45.851Z,83.80
2023-02-06T20:19:50.786Z,83.90
2023-02-06T20:21:59.925Z,84.60
2023-02-06T20:24:08.545Z,85.40
2023-02-06T20:26:13.461Z,86.00
2023-02-06T20:28:21.172Z,85.80
2023-02-06T20:30:26.517Z,86.40
2023-02-06T20:32:32.157Z,85.30
2023-02-06T20:34:38.155Z,85.00
2023-02-06T20:36:43.554Z,85.10
2023-02-06T20:38:51.606Z,84.10
2023-02-06T20:40:56.667Z,84.10
2023-02-06T20:43:01.568Z,82.80
2023-02-06T20:45:10.184Z,83.60
2023-02-06T20:47:15.777Z,83.20
2023-02-06T20:49:23.200Z,82.90
2023-02-06T20:51:28.685Z,81.30
2023-02-06T20:53:34.453Z,82.20
2023-02-06T20:55:44.137Z,83.40
2023-02-06T20:57:49.033Z,82.20
2023-02-06T20:59:53.943Z,82.20
2023-02-06T21:02:01.499Z,81.40
2023-02-06T21:04:09.587Z,81.70
2023-02-06T21:06:16.022Z,81.30
2023-02-06T21:08:20.988Z,81.30
2023-02-06T21:10:27.982Z,81.40
2023-02-06T21:12:32.908Z,82.20
2023-02-06T21:14:38.157Z,82.60
2023-02-06T21:16:45.112Z,82.10
2023-02-06T21:18:52.594Z,82.10
2023-02-06T21:20:59.357Z,81.90
2023-02-06T21:23:04.358Z,81.70
2023-02-06T21:25:09.646Z,81.30
2023-02-06T21:27:14.554Z,81.40
2023-02-06T21:29:19.595Z,81.90
2023-02-06T21:31:36.029Z,82.50
2023-02-06T21:33:43.023Z,82.10
2023-02-06T21:35:55.442Z,81.90
2023-02-06T21:38:00.325Z,83.70
2023-02-06T21:40:05.509Z,83.70
2023-02-06T21:42:12.226Z,83.50
2023-02-06T21:44:17.536Z,83.50
2023-02-06T21:46:23.180Z,83.20
2023-02-06T21:48:28.528Z,82.70
2023-02-06T21:50:33.623Z,83.60
2023-02-06T21:52:41.569Z,83.60
2023-02-06T21:54:46.468Z,83.00
2023-02-06T21:56:52.113Z,83.20
2023-02-06T21:58:57.904Z,83.20
2023-02-06T22:01:03.005Z,82.80
2023-02-06T22:03:11.055Z,82.50
2023-02-06T22:05:15.946Z,83.40
2023-02-06T22:07:20.845Z,82.70
2023-02-06T22:09:28.386Z,83.40
2023-02-06T22:11:33.931Z,82.80
2023-02-06T22:13:38.853Z,83.10
2023-02-06T22:15:52.742Z,83.30
2023-02-06T22:17:58.128Z,83.70
2023-02-06T22:20:03.418Z,83.40
2023-02-06T22:22:08.445Z,83.60
2023-02-06T22:24:14.745Z,83.70
2023-02-06T22:26:23.826Z,83.00
2023-02-06T22:28:28.912Z,83.20
2023-02-06T22:30:33.949Z,83.50
2023-02-06T22:32:39.987Z,83.40
2023-02-06T22:34:44.908Z,83.50
2023-02-06T22:36:51.535Z,84.10
2023-02-06T22:38:58.750Z,84.10
2023-02-06T22:41:06.192Z,84.50
2023-02-06T22:43:13.691Z,84.00
2023-02-06T22:45:18.810Z,84.30
2023-02-06T22:47:23.758Z,84.40
2023-02-06T22:49:28.669Z,84.30
2023-02-06T22:51:34.136Z,83.90
2023-02-06T22:53:38.232Z,84.40
2023-02-06T22:55:58.377Z,84.70
2023-02-06T22:58:03.260Z,83.60
2023-02-06T23:00:14.814Z,84.20
2023-02-06T23:02:19.783Z,84.60
2023-02-06T23:04:28.216Z,84.40
2023-02-06T23:06:35.370Z,84.00
2023-02-06T23:08:40.859Z,84.70
2023-02-06T23:10:49.530Z,84.20
2023-02-06T23:12:54.512Z,84.80
2023-02-06T23:14:59.634Z,84.40
2023-02-06T23:17:07.327Z,84.20
2023-02-06T23:19:14.393Z,84.60
2023-02-06T23:21:21.407Z,84.00
2023-02-06T23:23:26.720Z,84.80
2023-02-06T23:25:31.619Z,84.20
2023-02-06T23:27:36.564Z,84.50
2023-02-06T23:29:41.558Z,84.30
2023-02-06T23:31:47.401Z,84.00
2023-02-06T23:33:55.924Z,84.70
2023-02-06T23:36:10.761Z,84.30
2023-02-06T23:38:16.085Z,84.00
2023-02-06T23:40:21.665Z,83.30
2023-02-06T23:42:26.942Z,83.40
2023-02-06T23:44:31.830Z,84.90
2023-02-06T23:46:39.874Z,84.60
2023-02-06T23:48:44.809Z,84.90
2023-02-06T23:50:52.309Z,84.90
2023-02-06T23:52:57.481Z,85.50
2023-02-06T23:55:02.388Z,84.30
2023-02-06T23:57:07.524Z,85.10
2023-02-06T23:59:13.621Z,84.40
